Time;durP1;ratioP1;P1;durP2;ratioP2;P2;SDS_P1;SDS_P2;PMS_P1;PMS_P2;Temp;Humidity;BMP_temperature;BMP_pressure;BME280_temperature;BME280_humidity;BME280_pressure;Samples;Min_cycle;Max_cycle;Signal;HPM_P1;HPM_P2
2022/04/25 00:00:35;;;;;;;12.90;6.65;;;;;;;16.37;74.57;100780.47;5083946;28;20028;-54
2022/04/25 00:03:02;;;;;;;16.48;6.85;;;;;;;16.29;75.57;100776.22;5089115;28;20060;-54
2022/04/25 00:05:27;;;;;;;14.15;6.75;;;;;;;16.27;76.12;100775.66;5078585;28;20040;-54
2022/04/25 00:07:53;;;;;;;13.97;6.60;;;;;;;16.26;76.25;100769.44;5086660;28;20048;-54
2022/04/25 00:10:19;;;;;;;14.25;6.43;;;;;;;16.19;76.96;100774.94;5069006;28;20270;-54
2022/04/25 00:12:45;;;;;;;17.02;6.25;;;;;;;15.98;79.17;100772.81;5087111;28;20096;-55
2022/04/25 00:15:12;;;;;;;14.90;6.90;;;;;;;16.07;78.54;100774.13;5079467;28;20033;-53
2022/04/25 00:17:38;;;;;;;10.93;5.90;;;;;;;16.20;77.13;100781.16;5091428;28;20032;-56
2022/04/25 00:20:05;;;;;;;12.93;6.85;;;;;;;16.09;78.38;100779.28;5081207;28;20038;-54
2022/04/25 00:22:31;;;;;;;11.82;6.32;;;;;;;15.91;80.46;100778.31;5084720;28;20552;-51
2022/04/25 00:24:56;;;;;;;12.10;6.73;;;;;;;16.00;80.17;100781.50;5079345;28;20036;-52
2022/04/25 00:27:22;;;;;;;15.80;6.93;;;;;;;15.85;81.50;100777.34;5091039;28;20043;-51
2022/04/25 00:29:48;;;;;;;14.93;7.80;;;;;;;15.94;80.96;100779.75;5074903;28;20047;-50
2022/04/25 00:32:13;;;;;;;17.40;7.20;;;;;;;15.96;80.76;100788.44;5081842;28;20036;-50
2022/04/25 00:34:39;;;;;;;14.10;6.67;;;;;;;16.00;79.98;100784.19;5083708;28;20314;-54
2022/04/25 00:37:04;;;;;;;17.20;7.17;;;;;;;15.98;79.92;100783.63;5089171;28;20040;-50
2022/04/25 00:39:30;;;;;;;14.70;7.03;;;;;;;15.80;82.24;100777.22;5077600;28;20061;-56
2022/04/25 00:41:57;;;;;;;15.47;8.57;;;;;;;15.84;82.02;100782.97;5089386;28;20033;-54
2022/04/25 00:44:23;;;;;;;13.18;7.22;;;;;;;15.85;82.09;100785.44;5083041;28;20036;-53
2022/04/25 00:46:51;;;;;;;16.95;7.78;;;;;;;15.94;80.92;100777.84;5081901;28;20036;-54
2022/04/25 00:49:17;;;;;;;17.58;8.23;;;;;;;15.69;83.88;100781.53;5090164;28;20052;-56
2022/04/25 00:51:42;;;;;;;17.43;8.50;;;;;;;15.67;84.23;100785.50;5077428;28;20044;-52
2022/04/25 00:54:09;;;;;;;13.17;7.10;;;;;;;15.77;83.22;100797.38;5087666;28;20032;-51
2022/04/25 00:56:35;;;;;;;17.75;8.00;;;;;;;15.72;83.59;100780.28;5084408;28;20277;-53
2022/04/25 00:59:02;;;;;;;24.60;8.07;;;;;;;15.68;84.10;100785.28;5079891;28;20059;-53
2022/04/25 01:01:28;;;;;;;14.82;7.65;;;;;;;15.69;84.03;100783.44;5090300;28;20040;-53
2022/04/25 01:03:54;;;;;;;17.65;7.50;;;;;;;15.63;84.94;100791.38;5073884;28;20029;-55
2022/04/25 01:06:20;;;;;;;19.43;8.17;;;;;;;15.63;84.91;100785.97;5082023;28;20066;-54
2022/04/25 01:08:45;;;;;;;21.10;8.93;;;;;;;15.75;83.85;100793.28;5082001;28;20049;-51
2022/04/25 01:11:12;;;;;;;18.02;7.72;;;;;;;15.81;83.62;100786.97;5089369;28;20138;-52
2022/04/25 01:13:38;;;;;;;21.23;7.47;;;;;;;15.87;82.61;100783.31;5077564;28;20028;-55
2022/04/25 01:16:03;;;;;;;15.33;7.37;;;;;;;15.88;82.64;100790.38;5087866;28;20033;-56
2022/04/25 01:18:29;;;;;;;15.13;6.88;;;;;;;15.73;83.77;100793.50;5083629;28;20033;-51
2022/04/25 01:20:56;;;;;;;19.40;7.77;;;;;;;15.70;84.24;100785.06;5091902;28;20044;-52
2022/04/25 01:28:54;;;;;;;17.80;8.32;;;;;;;15.49;86.72;100776.47;5086506;28;20033;-52
2022/04/25 01:31:19;;;;;;;23.10;8.48;;;;;;;15.41;87.60;100779.47;5077385;28;20040;-53
2022/04/25 01:33:45;;;;;;;12.63;7.53;;;;;;;15.46;86.76;100775.03;5090218;28;20040;-54
2022/04/25 01:36:12;;;;;;;13.15;7.25;;;;;;;15.44;87.15;100774.44;5080370;28;20067;-53
2022/04/25 01:38:37;;;;;;;15.57;7.85;;;;;;;15.43;87.37;100783.59;5082871;28;20112;-55
2022/04/25 01:41:03;;;;;;;18.93;7.87;;;;;;;15.30;89.42;100776.50;5087099;28;20088;-55
2022/04/25 01:43:28;;;;;;;19.05;8.60;;;;;;;15.13;91.38;100775.50;5075965;28;20056;-51
2022/04/25 01:45:54;;;;;;;19.10;8.17;;;;;;;15.09;92.46;100777.00;5063425;28;20040;-56
2022/04/25 01:48:21;;;;;;;12.40;7.55;;;;;;;15.03;93.21;100782.25;5085905;28;20118;-55
2022/04/25 01:50:49;;;;;;;17.55;8.38;;;;;;;14.98;93.54;100782.09;5085419;28;20041;-55
2022/04/25 01:53:15;;;;;;;17.80;8.52;;;;;;;14.93;93.65;100778.44;5078097;28;20059;-57
2022/04/25 01:55:40;;;;;;;15.50;7.75;;;;;;;14.89;94.84;100780.75;5090314;28;20041;-54
2022/04/25 01:58:06;;;;;;;19.13;8.57;;;;;;;14.87;94.98;100780.16;5079860;28;20032;-55
2022/04/25 02:00:31;;;;;;;19.83;8.77;;;;;;;14.83;95.80;100779.78;5083459;28;20040;-56
2022/04/25 02:02:57;;;;;;;19.80;8.55;;;;;;;14.87;94.62;100780.97;5086609;28;20035;-56
2022/04/25 02:05:23;;;;;;;17.55;8.15;;;;;;;14.98;93.66;100781.28;5076916;28;20049;-56
2022/04/25 02:07:48;;;;;;;23.73;9.03;;;;;;;14.98;93.34;100781.28;5089661;28;20057;-56
2022/04/25 02:10:14;;;;;;;14.20;8.20;;;;;;;14.90;94.21;100780.56;5073716;28;20278;-54
2022/04/25 02:12:40;;;;;;;18.47;7.83;;;;;;;14.90;94.19;100780.56;5086985;28;20118;-53
2022/04/25 02:15:12;;;;;;;19.20;8.25;;;;;;;14.83;94.89;100774.41;5091211;28;20129;-51
2022/04/25 02:17:44;;;;;;;20.85;9.77;;;;;;;14.84;96.02;100775.25;5076852;28;20060;-55
2022/04/25 02:20:11;;;;;;;15.38;8.68;;;;;;;14.76;96.15;100774.50;5083579;28;20027;-53
2022/04/25 02:22:37;;;;;;;21.88;9.27;;;;;;;14.84;96.01;100775.25;5086557;28;20060;-54
2022/04/25 02:25:04;;;;;;;21.02;8.75;;;;;;;14.82;95.97;100771.94;5090654;28;20032;-56
2022/04/25 02:27:30;;;;;;;21.20;8.43;;;;;;;14.99;92.91;100772.16;5080164;28;20041;-56
2022/04/25 02:29:58;;;;;;;22.10;10.40;;;;;;;14.73;96.41;100774.94;5092506;28;20033;-56
2022/04/25 02:32:28;;;;;;;17.85;9.00;;;;;;;14.57;99.57;100770.94;5085084;28;20076;-53
2022/04/25 02:34:54;;;;;;;24.58;8.75;;;;;;;14.57;100.00;100772.81;5084412;28;20037;-54
2022/04/25 02:37:23;;;;;;;17.85;8.85;;;;;;;14.55;100.00;100772.22;5092639;28;20461;-55
2022/04/25 02:39:50;;;;;;;28.73;10.18;;;;;;;14.58;100.00;100771.78;5063536;28;20028;-53
2022/04/25 02:42:15;;;;;;;21.35;8.90;;;;;;;14.66;99.65;100763.38;5089796;28;20037;-54
2022/04/25 02:44:40;;;;;;;19.30;9.77;;;;;;;14.66;99.32;100774.16;5086992;28;20111;-55
2022/04/25 02:47:06;;;;;;;21.43;9.43;;;;;;;14.64;100.00;100768.19;5082530;28;20039;-55
2022/04/25 02:49:31;;;;;;;23.87;11.53;;;;;;;14.71;98.62;100760.06;5093162;28;20062;-56
2022/04/25 02:51:57;;;;;;;22.17;9.93;;;;;;;14.58;100.00;100763.69;5080644;28;20263;-54
2022/04/25 02:54:23;;;;;;;17.73;8.70;;;;;;;14.45;100.00;100768.16;5088553;28;20052;-56
2022/04/25 02:56:48;;;;;;;17.27;9.27;;;;;;;14.48;100.00;100762.34;5088281;28;20051;-53
2022/04/25 02:59:15;;;;;;;24.93;10.57;;;;;;;14.46;100.00;100767.13;5081271;28;20285;-54
2022/04/25 03:01:41;;;;;;;21.60;9.75;;;;;;;14.40;100.00;100764.50;5092867;28;20036;-51
2022/04/25 03:04:07;;;;;;;20.55;10.68;;;;;;;14.32;100.00;100752.97;5082136;28;20032;-54
2022/04/25 03:06:33;;;;;;;21.05;9.35;;;;;;;14.29;100.00;100763.34;5086507;28;20041;-54
2022/04/25 03:08:59;;;;;;;22.07;10.30;;;;;;;14.39;100.00;100761.00;5089013;28;20118;-54
2022/04/25 03:11:25;;;;;;;18.38;9.07;;;;;;;14.41;100.00;100766.13;5079679;28;20036;-55
2022/04/25 03:13:52;;;;;;;18.85;8.93;;;;;;;14.25;100.00;100767.53;5062907;28;20028;-55
2022/04/25 03:16:19;;;;;;;18.63;9.02;;;;;;;14.28;100.00;100767.09;5088882;28;20029;-52
2022/04/25 03:18:46;;;;;;;20.30;9.70;;;;;;;14.35;100.00;100770.56;5065389;28;20109;-52
2022/04/25 03:21:13;;;;;;;24.60;10.20;;;;;;;14.19;100.00;100766.59;5085123;28;20126;-54
2022/04/25 03:23:39;;;;;;;22.92;10.15;;;;;;;14.19;100.00;100764.69;5078540;28;20048;-55
2022/04/25 03:26:06;;;;;;;17.92;9.82;;;;;;;14.19;100.00;100766.59;5090698;28;20033;-54
2022/04/25 03:28:32;;;;;;;23.05;10.00;;;;;;;14.12;100.00;100769.31;5075894;28;20058;-53
2022/04/25 03:30:58;;;;;;;23.70;10.88;;;;;;;14.00;100.00;100766.53;5088609;28;20046;-54
2022/04/25 03:33:24;;;;;;;22.48;10.00;;;;;;;14.07;100.00;100765.66;5079481;28;20041;-53
2022/04/25 03:35:49;;;;;;;18.08;9.57;;;;;;;14.07;100.00;100765.66;5078650;28;20036;-54
2022/04/25 03:38:18;;;;;;;24.50;10.40;;;;;;;14.09;100.00;100780.53;5088841;28;20036;-50
2022/04/25 03:40:44;;;;;;;18.65;9.82;;;;;;;13.98;100.00;100768.63;5086191;28;20103;-55
2022/04/25 03:43:10;;;;;;;19.05;10.27;;;;;;;13.93;100.00;100776.50;5084323;28;20040;-51
2022/04/25 03:45:36;;;;;;;19.02;9.60;;;;;;;13.89;100.00;100777.97;5078722;28;20041;-50
2022/04/25 03:48:03;;;;;;;26.00;9.98;;;;;;;13.95;100.00;100777.09;5090118;28;20045;-52
2022/04/25 03:50:31;;;;;;;23.55;11.00;;;;;;;13.97;100.00;100777.72;5083841;28;20064;-50
2022/04/25 03:53:04;;;;;;;21.05;11.02;;;;;;;13.90;100.00;100780.47;5082953;28;20057;-53
2022/04/25 03:58:13;;;;;;;24.52;11.85;;;;;;;13.96;100.00;100788.69;5081255;28;20040;-52
2022/04/25 04:00:39;;;;;;;20.17;10.17;;;;;;;13.84;100.00;100788.56;5085347;28;20047;-53
2022/04/25 04:03:04;;;;;;;23.35;11.73;;;;;;;13.78;100.00;100790.25;5082550;28;20040;-53
2022/04/25 04:05:30;;;;;;;24.43;11.23;;;;;;;13.75;100.00;100796.91;5091412;28;20059;-54
2022/04/25 04:07:56;;;;;;;29.95;12.07;;;;;;;13.80;100.00;100793.56;5063848;28;20032;-52
2022/04/25 04:10:22;;;;;;;29.23;11.73;;;;;;;13.79;100.00;100799.16;5087289;28;20044;-51
2022/04/25 04:12:48;;;;;;;22.08;11.25;;;;;;;13.85;100.00;100798.28;5086114;28;20278;-52
2022/04/25 04:15:15;;;;;;;32.10;11.33;;;;;;;13.99;100.00;100807.06;5079405;28;20045;-55
2022/04/25 04:17:41;;;;;;;26.25;11.90;;;;;;;14.00;100.00;100811.41;5091472;28;20032;-52
2022/04/25 04:20:12;;;;;;;27.85;11.48;;;;;;;14.22;100.00;100809.16;5080254;28;20108;-51
2022/04/25 04:22:39;;;;;;;27.63;12.15;;;;;;;14.44;100.00;100820.34;5085053;28;20037;-55
2022/04/25 04:25:11;;;;;;;23.30;10.32;;;;;;;14.56;100.00;100816.94;5069587;28;20059;-53
2022/04/25 04:27:36;;;;;;;21.55;11.77;;;;;;;14.82;100.00;100823.91;5057963;28;20036;-54
2022/04/25 04:30:08;;;;;;;22.10;11.32;;;;;;;14.85;100.00;100817.25;5063062;28;20044;-49
2022/04/25 04:32:35;;;;;;;21.05;9.45;;;;;;;15.02;97.98;100823.69;5073089;28;20041;-54
2022/04/25 04:35:02;;;;;;;26.70;10.27;;;;;;;14.97;97.32;100820.03;5081780;28;20045;-56
2022/04/25 04:37:34;;;;;;;23.60;11.07;;;;;;;15.08;96.92;100831.91;5091028;28;20039;-53
2022/04/25 04:42:45;;;;;;;25.25;12.32;;;;;;;15.04;96.98;100832.38;5083432;28;20040;-54
2022/04/25 04:45:11;;;;;;;18.85;10.30;;;;;;;15.08;97.19;100827.34;5088775;28;20033;-55
2022/04/25 04:47:39;;;;;;;20.67;10.45;;;;;;;15.04;98.19;100832.38;5077571;28;20044;-56
2022/04/25 04:50:14;;;;;;;26.35;11.75;;;;;;;15.08;97.53;100834.59;5088324;28;20052;-52
2022/04/25 04:52:41;;;;;;;23.90;10.88;;;;;;;15.28;95.96;100837.88;5084078;28;20063;-54
2022/04/25 04:55:06;;;;;;;42.23;19.30;;;;;;;15.24;96.20;100838.56;5080971;28;20055;-55
2022/04/25 04:57:32;;;;;;;42.25;18.83;;;;;;;15.71;89.46;100832.53;5082540;28;20307;-52
2022/04/25 04:59:57;;;;;;;55.57;23.13;;;;;;;16.05;84.72;100841.81;5090073;28;20037;-53
2022/04/25 05:02:23;;;;;;;25.60;12.40;;;;;;;16.86;80.62;100844.97;5074069;28;20040;-54
2022/04/25 05:04:49;;;;;;;18.90;10.73;;;;;;;16.01;84.24;100847.88;5084850;28;20064;-53
2022/04/25 05:07:15;;;;;;;21.90;10.90;;;;;;;15.81;86.13;100850.88;5079510;28;20059;-53
2022/04/25 05:09:41;;;;;;;;;;;;;;;15.72;89.33;100848.47;5091109;28;20075;-49
2022/04/25 05:12:07;;;;;;;18.87;10.43;;;;;;;15.87;88.27;100852.63;5079136;28;19924;-52
2022/04/25 05:14:32;;;;;;;24.65;11.15;;;;;;;15.86;88.88;100865.28;5085251;28;20116;-55
2022/04/25 05:16:58;;;;;;;24.73;11.73;;;;;;;16.03;86.98;100859.25;5086442;28;20040;-54
2022/04/25 05:19:23;;;;;;;24.27;13.27;;;;;;;15.75;88.76;100863.38;5076137;28;20041;-55
2022/04/25 05:21:48;;;;;;;34.00;11.30;;;;;;;15.89;88.41;100870.22;5061990;28;20048;-56
2022/04/25 05:24:15;;;;;;;22.42;10.98;;;;;;;17.22;77.37;100861.94;5059358;28;20029;-52
2022/04/25 05:26:40;;;;;;;23.05;11.65;;;;;;;17.49;72.25;100867.63;5063568;28;20036;-56
2022/04/25 05:29:06;;;;;;;26.40;12.13;;;;;;;17.30;73.91;100868.84;5070094;28;20056;-53
2022/04/25 05:31:32;;;;;;;22.90;11.88;;;;;;;17.27;74.15;100869.34;5068735;28;20036;-55
2022/04/25 05:33:59;;;;;;;28.48;12.20;;;;;;;17.34;74.64;100876.25;5064651;28;20037;-54
2022/04/25 05:36:25;;;;;;;22.30;11.55;;;;;;;16.95;76.85;100875.94;5060701;28;20068;-55
2022/04/25 05:38:50;;;;;;;22.83;12.63;;;;;;;17.29;74.58;100873.44;5056105;28;20033;-56
2022/04/25 05:41:16;;;;;;;23.17;10.97;;;;;;;17.17;74.96;100880.75;5068580;28;20033;-53
2022/04/25 05:43:42;;;;;;;29.27;11.88;;;;;;;17.31;74.18;100882.13;5062239;28;20089;-56
2022/04/25 05:46:08;;;;;;;22.65;12.25;;;;;;;17.38;73.72;100881.97;5072132;28;20036;-56
2022/04/25 05:54:04;;;;;;;19.38;11.52;;;;;;;17.81;71.54;100890.66;5066797;28;20021;-56
2022/04/25 05:56:29;;;;;;;25.70;13.00;;;;;;;17.94;70.69;100889.53;5059329;28;20041;-56
2022/04/25 05:58:54;;;;;;;27.77;13.17;;;;;;;17.95;71.02;100893.03;5071359;28;20293;-54
2022/04/25 06:01:20;;;;;;;25.23;12.13;;;;;;;17.84;71.89;100895.56;5065879;28;20033;-55
2022/04/25 06:03:45;;;;;;;25.73;13.20;;;;;;;17.86;72.36;100893.44;5060769;28;20278;-54
2022/04/25 06:06:11;;;;;;;24.90;12.00;;;;;;;17.11;80.55;100895.22;5066038;28;20036;-53
2022/04/25 06:08:37;;;;;;;23.37;12.90;;;;;;;16.44;86.28;100895.34;5067073;28;20041;-54
2022/04/25 06:11:03;;;;;;;22.10;12.52;;;;;;;16.33;86.35;100888.88;5073981;28;20029;-53
2022/04/25 06:13:29;;;;;;;27.95;13.77;;;;;;;16.27;88.19;100894.38;5068772;28;20037;-56
2022/04/25 06:15:54;;;;;;;27.70;13.40;;;;;;;16.40;89.57;100899.56;5069770;28;20041;-55
2022/04/25 06:18:20;;;;;;;26.65;13.82;;;;;;;16.56;84.75;100900.75;5084190;28;20036;-51
2022/04/25 06:20:46;;;;;;;26.43;13.77;;;;;;;16.51;90.17;100905.19;5091381;28;20055;-54
2022/04/25 06:23:11;;;;;;;29.90;14.07;;;;;;;16.57;94.12;100913.19;5080274;28;20021;-55
2022/04/25 06:25:37;;;;;;;25.13;12.90;;;;;;;16.47;95.67;100916.47;5090886;28;20048;-56
2022/04/25 06:28:04;;;;;;;20.50;11.93;;;;;;;16.40;97.94;100921.16;5080624;28;20084;-57
2022/04/25 06:30:30;;;;;;;27.02;14.63;;;;;;;16.48;100.00;100920.81;5081476;28;20132;-56
2022/04/25 06:32:57;;;;;;;27.58;14.80;;;;;;;16.23;100.00;100920.19;5069573;28;20072;-55
2022/04/25 06:35:23;;;;;;;28.33;15.93;;;;;;;16.25;100.00;100920.78;5087399;28;20028;-57
2022/04/25 06:37:49;;;;;;;30.75;16.00;;;;;;;15.93;100.00;100927.25;5079521;28;20041;-55
2022/04/25 06:40:15;;;;;;;29.00;14.80;;;;;;;16.09;100.00;100925.75;5090369;28;20052;-56
2022/04/25 06:42:40;;;;;;;45.27;20.23;;;;;;;17.88;94.35;100917.56;5075957;28;20105;-55
2022/04/25 06:45:06;;;;;;;38.63;21.13;;;;;;;18.04;91.73;100926.78;5089729;28;20295;-54
2022/04/25 06:47:31;;;;;;;40.13;21.10;;;;;;;17.41;96.63;100921.25;5079721;28;20041;-54
2022/04/25 06:49:57;;;;;;;37.70;20.73;;;;;;;17.83;94.77;100931.78;5059596;28;20047;-56
2022/04/25 06:52:22;;;;;;;47.40;22.05;;;;;;;17.89;94.04;100933.53;5066113;28;20029;-51
2022/04/25 06:54:48;;;;;;;41.00;23.37;;;;;;;17.91;94.80;100934.09;5066019;28;20048;-54
2022/04/25 06:57:13;;;;;;;52.33;23.73;;;;;;;18.06;93.53;100932.78;5060596;28;20033;-51
2022/04/25 06:59:39;;;;;;;47.83;24.25;;;;;;;17.92;95.13;100938.44;5055087;28;20040;-56
2022/04/25 07:02:04;;;;;;;47.47;23.03;;;;;;;18.00;92.90;100942.66;5042052;28;20060;-56
2022/04/25 07:04:30;;;;;;;54.60;23.33;;;;;;;18.00;94.21;100939.13;5040377;28;20101;-52
2022/04/25 07:06:55;;;;;;;45.20;23.60;;;;;;;17.65;93.60;100940.94;5049800;28;20041;-54
2022/04/25 07:09:21;;;;;;;44.03;23.33;;;;;;;16.55;100.00;100946.88;5046410;28;20060;-55
2022/04/25 07:11:47;;;;;;;43.03;23.42;;;;;;;16.16;100.00;100950.78;5044141;28;20097;-56
2022/04/25 07:14:15;;;;;;;44.90;23.27;;;;;;;16.28;100.00;100949.97;5045008;28;20026;-57
2022/04/25 07:16:44;;;;;;;36.90;19.42;;;;;;;16.35;100.00;100950.69;5043444;28;20037;-54
2022/04/25 07:19:10;;;;;;;41.33;20.85;;;;;;;16.38;100.00;100944.88;5064774;28;20071;-52
2022/04/25 07:29:49;;;;;;;44.28;22.65;;;;;;;16.29;100.00;100957.03;5057513;28;20056;-57
2022/04/25 07:32:15;;;;;;;44.60;23.10;;;;;;;16.47;100.00;100959.66;5047330;28;20041;-54
2022/04/25 07:34:42;;;;;;;48.35;24.42;;;;;;;16.31;100.00;100952.22;5065945;28;20043;-52
2022/04/25 07:37:08;;;;;;;50.03;23.60;;;;;;;16.30;100.00;100956.81;5055561;28;20045;-55
2022/04/25 07:39:33;;;;;;;39.90;22.90;;;;;;;16.35;100.00;100956.09;5071717;28;20045;-55
2022/04/25 07:41:59;;;;;;;38.63;20.53;;;;;;;16.42;100.00;100956.00;5054505;28;20452;-56
2022/04/25 07:44:26;;;;;;;37.10;19.50;;;;;;;16.20;100.00;100954.66;5062298;28;20031;-56
2022/04/25 07:46:51;;;;;;;;;;;;;;;16.36;100.00;100965.84;5064916;28;20045;-53
2022/04/25 07:49:17;;;;;;;28.10;16.30;;;;;;;16.48;100.00;100963.16;5083615;28;19979;-54
2022/04/25 07:51:43;;;;;;;44.27;21.60;;;;;;;16.40;100.00;100964.34;5076951;28;20049;-52
2022/04/25 07:54:09;;;;;;;33.65;20.38;;;;;;;16.62;100.00;100967.31;5080212;28;20032;-56
2022/04/25 07:56:36;;;;;;;38.13;20.90;;;;;;;16.67;100.00;100973.88;5086440;28;20100;-54
2022/04/25 07:59:02;;;;;;;34.95;20.50;;;;;;;16.75;100.00;100966.25;5087239;28;20036;-58
2022/04/25 08:01:28;;;;;;;37.58;19.45;;;;;;;16.60;100.00;100968.56;5079016;28;20108;-56
2022/04/25 08:03:56;;;;;;;31.38;17.95;;;;;;;16.70;100.00;100979.66;5077160;28;20059;-53
2022/04/25 08:06:22;;;;;;;34.33;19.77;;;;;;;16.73;100.00;100979.16;5088153;28;20036;-53
2022/04/25 08:08:49;;;;;;;36.33;19.17;;;;;;;16.64;100.00;100980.59;5084981;28;20032;-57
2022/04/25 08:11:15;;;;;;;28.13;16.63;;;;;;;16.71;100.00;100975.88;5080748;28;20040;-52
2022/04/25 08:19:09;;;;;;;30.23;18.50;;;;;;;16.78;100.00;100989.28;5084155;28;20043;-56
2022/04/25 08:21:37;;;;;;;35.75;19.73;;;;;;;16.83;100.00;100996.66;5078015;28;20037;-55
2022/04/25 08:24:03;;;;;;;31.80;17.70;;;;;;;16.93;100.00;100996.91;5078525;28;20088;-55
2022/04/25 08:26:28;;;;;;;32.53;20.35;;;;;;;17.12;100.00;100997.66;5086640;28;20049;-55
2022/04/25 08:28:54;;;;;;;38.25;20.42;;;;;;;17.62;100.00;101000.88;5085726;28;20039;-54
2022/04/25 08:31:21;;;;;;;22.27;13.90;;;;;;;17.80;97.01;100997.19;5079928;28;20041;-53
2022/04/25 08:33:46;;;;;;;;;;;;;;;17.63;95.02;101002.50;5091069;28;20277;-53
2022/04/25 08:36:12;;;;;;;23.43;14.43;;;;;;;17.70;92.50;100994.28;5079737;28;19923;-54
2022/04/25 08:38:41;;;;;;;34.88;17.27;;;;;;;17.64;98.08;101004.16;5086749;28;20041;-56
2022/04/25 08:41:06;;;;;;;27.08;17.25;;;;;;;17.58;100.00;101011.38;5081571;28;20464;-53
2022/04/25 08:43:32;;;;;;;27.80;16.00;;;;;;;17.39;100.00;101016.06;5074149;28;20041;-53
2022/04/25 08:45:59;;;;;;;28.13;14.52;;;;;;;17.36;97.64;101021.16;5077243;28;20063;-55
2022/04/25 08:48:26;;;;;;;25.17;15.15;;;;;;;17.35;100.00;101028.44;5078927;28;20060;-53
2022/04/25 08:50:53;;;;;;;27.85;17.88;;;;;;;17.05;100.00;101024.78;5067175;28;20097;-56
2022/04/25 08:53:20;;;;;;;36.88;15.98;;;;;;;17.47;100.00;101031.13;5072351;28;20088;-54
2022/04/25 08:55:45;;;;;;;32.08;17.00;;;;;;;17.17;100.00;101026.69;5072175;28;20144;-55
2022/04/25 08:58:12;;;;;;;23.92;15.55;;;;;;;17.24;100.00;101030.06;5059121;28;20226;-55
2022/04/25 09:00:37;;;;;;;25.23;15.70;;;;;;;17.46;100.00;101040.28;5082727;28;20067;-53
2022/04/25 09:03:03;;;;;;;21.65;13.55;;;;;;;17.61;97.54;101037.94;5081350;28;20040;-56
2022/04/25 09:05:29;;;;;;;23.20;13.63;;;;;;;17.76;94.71;101044.69;5073996;28;20055;-55
2022/04/25 09:07:57;;;;;;;22.83;15.23;;;;;;;17.46;100.00;101051.09;5090267;28;20060;-56
2022/04/25 09:10:22;;;;;;;26.03;16.93;;;;;;;17.54;100.00;101050.75;5080125;28;20040;-56
2022/04/25 09:12:48;;;;;;;29.27;17.33;;;;;;;17.09;100.00;101051.34;5083872;28;20037;-56
2022/04/25 09:15:19;;;;;;;30.27;17.53;;;;;;;17.30;100.00;101053.47;5087358;28;20269;-54
2022/04/25 09:17:46;;;;;;;33.70;19.58;;;;;;;17.39;99.81;101061.22;5076555;28;20067;-56
2022/04/25 09:20:11;;;;;;;37.90;20.48;;;;;;;17.46;100.00;101067.31;5088184;28;20067;-52
2022/04/25 09:22:42;;;;;;;37.70;20.40;;;;;;;17.62;100.00;101072.03;5073793;28;20096;-55
2022/04/25 09:25:15;;;;;;;27.23;16.67;;;;;;;17.04;100.00;101065.56;5073689;28;20037;-55
2022/04/25 09:27:43;;;;;;;23.35;14.50;;;;;;;17.76;85.47;101066.34;5090314;28;20064;-57
2022/04/25 09:30:12;;;;;;;;;;;;;;;17.63;97.72;101068.25;5078458;28;20032;-57
2022/04/25 09:32:38;;;;;;;38.50;22.38;;;;;;;17.90;98.30;101066.91;5080284;28;19987;-56
2022/04/25 09:35:33;;;;;;;42.13;22.80;;;;;;;18.10;91.30;101069.25;5085593;28;20040;-52
2022/04/25 09:38:01;;;;;;;42.95;23.15;;;;;;;18.03;100.00;101073.97;5073551;28;20037;-55
2022/04/25 09:40:29;;;;;;;34.63;21.00;;;;;;;18.00;93.11;101069.81;5080157;28;20104;-57
2022/04/25 09:43:03;;;;;;;31.67;19.00;;;;;;;18.22;94.42;101068.34;5082610;28;20270;-55
2022/04/25 09:45:29;;;;;;;32.73;20.23;;;;;;;18.36;92.35;101068.91;5074432;28;20037;-56
2022/04/25 09:47:55;;;;;;;25.40;15.82;;;;;;;18.86;78.05;101065.47;5078412;28;20278;-54
2022/04/25 09:50:21;;;;;;;33.83;18.20;;;;;;;18.80;75.00;101069.16;5062953;28;20025;-52
2022/04/25 09:52:55;;;;;;;36.40;19.73;;;;;;;18.81;85.83;101081.63;5062965;28;20278;-55
2022/04/25 09:55:24;;;;;;;34.03;20.17;;;;;;;19.10;80.22;101080.75;5062791;28;20056;-56
2022/04/25 09:57:50;;;;;;;31.93;19.07;;;;;;;19.12;75.03;101084.03;5065646;28;20270;-54
2022/04/25 10:00:34;;;;;;;35.15;19.92;;;;;;;19.05;77.29;101087.75;5063331;28;20277;-58
2022/04/25 10:03:01;;;;;;;32.20;19.17;;;;;;;18.78;81.51;101084.81;5056498;28;20112;-56
2022/04/25 10:05:39;;;;;;;35.43;19.40;;;;;;;19.30;75.10;101093.81;5069623;28;20270;-54
2022/04/25 10:08:06;;;;;;;30.37;16.47;;;;;;;19.31;75.10;101088.13;5064965;28;20265;-55
2022/04/25 10:10:33;;;;;;;33.97;19.87;;;;;;;19.45;73.72;101085.09;5064978;28;20274;-56
2022/04/25 10:13:00;;;;;;;32.73;20.33;;;;;;;18.86;79.86;101091.72;5063422;28;20262;-52
2022/04/25 10:15:26;;;;;;;35.77;20.00;;;;;;;18.95;80.22;101087.56;5059942;28;20324;-54
2022/04/25 10:17:52;;;;;;;34.57;19.97;;;;;;;18.72;87.51;101097.47;5062099;28;20294;-57
2022/04/25 10:20:18;;;;;;;25.47;16.57;;;;;;;18.72;75.37;101102.88;5072737;28;20043;-57
2022/04/25 10:22:44;;;;;;;33.25;18.15;;;;;;;18.89;82.65;101094.78;5077039;28;20279;-54
2022/04/25 10:25:10;;;;;;;33.50;19.60;;;;;;;18.91;82.31;101108.06;5059431;28;20041;-54
2022/04/25 10:27:40;;;;;;;33.58;18.50;;;;;;;18.60;77.48;101107.53;5068486;28;20049;-56
2022/04/25 10:30:13;;;;;;;27.70;16.67;;;;;;;17.75;82.84;101106.09;5058827;28;20033;-57
2022/04/25 10:32:38;;;;;;;29.03;17.83;;;;;;;18.21;83.64;101113.56;5071686;28;20278;-55
2022/04/25 10:35:11;;;;;;;32.28;18.27;;;;;;;18.49;77.46;101112.78;5069258;28;20294;-55
2022/04/25 10:37:40;;;;;;;33.70;20.27;;;;;;;18.44;81.05;101101.00;5067129;28;20033;-58
2022/04/25 10:40:14;;;;;;;34.47;19.27;;;;;;;18.36;83.14;101110.34;5061796;28;20270;-55
2022/04/25 10:46:00;;;;;;;32.85;18.63;;;;;;;18.42;83.06;101108.56;5066549;28;20329;-58
2022/04/25 10:48:27;;;;;;;27.17;15.10;;;;;;;18.56;76.16;101111.78;5066530;28;20065;-56
2022/04/25 10:51:09;;;;;;;34.20;17.00;;;;;;;18.59;76.49;101114.00;5064129;28;20274;-53
2022/04/25 10:53:56;;;;;;;37.90;19.20;;;;;;;18.54;77.38;101119.34;5060857;28;20270;-54
2022/04/25 10:56:22;;;;;;;25.77;14.73;;;;;;;18.40;71.53;101125.03;5066502;28;20258;-56
2022/04/25 10:59:26;;;;;;;29.80;16.03;;;;;;;18.29;71.78;101120.50;5066716;28;20081;-55
2022/04/25 11:01:53;;;;;;;29.60;17.40;;;;;;;18.38;74.90;101124.44;5091997;28;20041;-56
2022/04/25 11:04:21;;;;;;;34.57;18.33;;;;;;;18.70;76.59;101120.44;5075631;28;20285;-56
2022/04/25 11:06:47;;;;;;;32.80;18.40;;;;;;;18.62;76.63;101121.66;5085010;28;20282;-53
2022/04/25 11:09:41;;;;;;;36.63;18.33;;;;;;;18.70;76.57;101123.97;5082181;28;20281;-56
2022/04/25 11:12:07;;;;;;;34.00;17.70;;;;;;;18.82;74.24;101131.22;5063949;28;20036;-57
2022/04/25 11:14:33;;;;;;;32.33;19.27;;;;;;;18.92;74.13;101126.78;5087985;28;20296;-57
2022/04/25 11:17:12;;;;;;;32.50;17.38;;;;;;;18.81;73.49;101129.56;5086835;28;20040;-57
2022/04/25 11:19:53;;;;;;;32.40;16.47;;;;;;;18.60;72.07;101140.03;5079233;28;20139;-55
2022/04/25 11:22:40;;;;;;;36.97;16.57;;;;;;;18.27;77.00;101146.97;5062364;28;20317;-55
2022/04/25 11:25:24;;;;;;;38.95;19.15;;;;;;;18.26;78.65;101145.34;5075853;28;20309;-55
2022/04/25 11:28:18;;;;;;;31.50;18.93;;;;;;;17.88;84.96;101145.59;5092101;28;20072;-54
2022/04/25 11:30:44;;;;;;;32.47;19.47;;;;;;;18.18;80.25;101152.75;5084498;28;20284;-56
2022/04/25 11:33:12;;;;;;;34.40;18.77;;;;;;;18.12;78.71;101148.31;5082699;28;20293;-56
2022/04/25 11:35:39;;;;;;;33.87;19.23;;;;;;;18.26;77.57;101156.16;5091850;28;20065;-55
2022/04/25 11:38:05;;;;;;;34.80;18.17;;;;;;;19.99;67.01;101146.06;5058884;28;20269;-58
2022/04/25 11:40:31;;;;;;;;;;;;;;;19.75;65.76;101154.41;5082590;28;20266;-57
2022/04/25 11:42:59;;;;;;;40.70;19.05;;;;;;;19.69;64.99;101156.22;5083773;28;19936;-58